createdAt,value
2022-08-05T00:02:22.028Z,3.07
2022-08-05T00:04:55.542Z,3.50
2022-08-05T00:07:59.799Z,3.20
2022-08-05T00:10:10.466Z,3.22
2022-08-05T00:12:48.487Z,3.20
2022-08-05T00:15:55.905Z,3.42
2022-08-05T00:18:10.429Z,3.67
2022-08-05T00:20:48.852Z,3.45
2022-08-05T00:23:15.478Z,3.53
2022-08-05T00:25:46.148Z,3.45
2022-08-05T00:28:13.460Z,3.53
2022-08-05T00:30:41.231Z,3.80
2022-08-05T00:33:15.436Z,3.20
2022-08-05T00:36:16.040Z,3.75
2022-08-05T00:38:44.327Z,3.70
2022-08-05T00:41:11.762Z,3.83
2022-08-05T00:43:46.704Z,3.95
2022-08-05T00:46:16.026Z,3.60
2022-08-05T00:48:51.117Z,3.85
2022-08-05T00:51:50.935Z,4.13
2022-08-05T00:54:05.818Z,3.53
2022-08-05T00:56:32.315Z,3.22
2022-08-05T00:59:00.198Z,3.58
2022-08-05T01:01:42.574Z,3.85
2022-08-05T01:04:14.058Z,4.43
2022-08-05T01:07:22.774Z,5.28
2022-08-05T01:09:58.842Z,7.03
2022-08-05T01:12:29.801Z,5.95
2022-08-05T01:15:04.042Z,8.10
2022-08-05T01:17:31.597Z,8.02
2022-08-05T01:20:31.593Z,7.68
2022-08-05T01:23:40.586Z,7.75
2022-08-05T01:26:13.958Z,6.78
2022-08-05T01:29:05.161Z,6.10
2022-08-05T01:31:46.915Z,6.20
2022-08-05T01:34:35.792Z,6.07
2022-08-05T01:37:24.665Z,6.18
2022-08-05T01:39:58.722Z,5.53
2022-08-05T01:42:27.763Z,5.70
2022-08-05T01:44:56.630Z,6.28
2022-08-05T01:50:16.021Z,5.40
2022-08-05T01:52:50.023Z,5.70
2022-08-05T01:55:20.290Z,6.50
2022-08-05T01:58:12.462Z,6.13
2022-08-05T02:00:41.982Z,6.68
2022-08-05T02:03:46.671Z,6.22
2022-08-05T02:06:33.935Z,6.03
2022-08-05T02:09:00.797Z,5.70
2022-08-05T02:11:37.574Z,5.30
2022-08-05T02:16:44.561Z,4.70
2022-08-05T02:22:26.597Z,4.65
2022-08-05T02:25:03.579Z,4.50
2022-08-05T02:27:57.896Z,4.00
2022-08-05T02:30:20.653Z,3.80
2022-08-05T02:32:51.300Z,4.03
2022-08-05T02:35:22.151Z,3.90
2022-08-05T02:37:56.687Z,3.50
2022-08-05T02:40:27.442Z,4.00
2022-08-05T02:42:55.646Z,3.60
2022-08-05T02:45:25.348Z,3.65
2022-08-05T02:48:11.435Z,3.72
2022-08-05T02:50:43.772Z,3.15
2022-08-05T02:53:19.095Z,3.92
2022-08-05T02:55:59.519Z,3.10
2022-08-05T02:58:30.066Z,3.20
2022-08-05T03:01:00.855Z,3.17
2022-08-05T03:03:33.693Z,3.50
2022-08-05T03:06:55.888Z,3.78
2022-08-05T03:08:52.431Z,2.83
2022-08-05T03:11:56.954Z,3.22
2022-08-05T03:14:09.960Z,3.10
2022-08-05T03:16:40.490Z,3.28
2022-08-05T03:19:17.373Z,3.03
2022-08-05T03:21:53.623Z,2.90
2022-08-05T03:24:29.358Z,2.88
2022-08-05T03:26:56.940Z,2.88
2022-08-05T03:29:24.063Z,3.30
2022-08-05T03:31:56.900Z,3.35
2022-08-05T03:34:28.769Z,2.80
2022-08-05T03:36:55.380Z,3.30
2022-08-05T03:39:27.112Z,3.25
2022-08-05T03:41:56.262Z,3.13
2022-08-05T03:44:23.481Z,3.50
2022-08-05T03:46:50.140Z,3.50
2022-08-05T03:49:16.999Z,3.05
2022-08-05T03:52:48.707Z,2.80
2022-08-05T03:55:51.304Z,3.25
2022-08-05T03:57:41.416Z,3.47
2022-08-05T04:00:11.489Z,3.80
2022-08-05T04:02:57.578Z,3.10
2022-08-05T04:05:28.006Z,3.45
2022-08-05T04:08:03.493Z,3.25
2022-08-05T04:10:37.982Z,3.08
2022-08-05T04:13:07.249Z,3.17
2022-08-05T04:15:36.532Z,3.58
2022-08-05T04:18:09.313Z,3.28
2022-08-05T04:20:36.461Z,3.40
2022-08-05T04:23:03.105Z,3.60
2022-08-05T04:25:56.639Z,3.47
2022-08-05T04:28:17.416Z,3.00
2022-08-05T04:30:44.187Z,3.25
2022-08-05T04:33:11.014Z,3.33
2022-08-05T04:36:10.900Z,3.60
2022-08-05T04:38:39.463Z,3.20
2022-08-05T04:41:07.469Z,3.42
2022-08-05T04:43:37.422Z,3.08
2022-08-05T04:46:05.059Z,3.63
2022-08-05T04:48:32.176Z,2.90
2022-08-05T04:51:03.839Z,3.20
2022-08-05T04:53:38.556Z,3.42
2022-08-05T04:56:33.068Z,3.30
2022-08-05T04:58:54.324Z,2.83
2022-08-05T05:01:33.693Z,3.10
2022-08-05T05:04:07.535Z,3.42
2022-08-05T05:06:39.827Z,3.85
2022-08-05T05:09:14.125Z,3.50
2022-08-05T05:11:54.444Z,3.63
2022-08-05T05:14:31.718Z,3.60
2022-08-05T05:17:01.774Z,4.03
2022-08-05T05:19:37.162Z,3.42
2022-08-05T05:22:22.782Z,3.30
2022-08-05T05:24:57.335Z,3.47
2022-08-05T05:27:44.793Z,3.53
2022-08-05T05:30:29.190Z,3.40
2022-08-05T05:32:57.166Z,3.55
2022-08-05T05:35:27.896Z,3.45
2022-08-05T05:38:00.155Z,3.60
2022-08-05T05:40:29.348Z,3.08
2022-08-05T05:42:57.307Z,3.70
2022-08-05T05:45:24.703Z,3.20
2022-08-05T05:48:06.555Z,3.17
2022-08-05T05:50:41.033Z,3.60
2022-08-05T05:53:21.340Z,3.58
2022-08-05T05:55:52.345Z,3.53
2022-08-05T05:58:31.719Z,3.08
2022-08-05T06:01:02.556Z,3.33
2022-08-05T06:04:01.720Z,3.88
2022-08-05T06:06:28.229Z,3.50
2022-08-05T06:08:57.460Z,3.58
2022-08-05T06:11:24.041Z,3.88
2022-08-05T06:13:54.005Z,3.30
2022-08-05T06:16:28.518Z,3.17
2022-08-05T06:19:00.878Z,3.05
2022-08-05T06:21:36.140Z,3.08
2022-08-05T06:24:04.517Z,2.85
2022-08-05T06:26:33.934Z,2.65
2022-08-05T06:29:06.033Z,2.88
2022-08-05T06:31:48.132Z,2.80
2022-08-05T06:34:19.903Z,2.45
2022-08-05T06:36:57.472Z,2.60
2022-08-05T06:39:27.076Z,3.05
2022-08-05T06:41:58.640Z,2.75
2022-08-05T06:44:25.635Z,2.45
2022-08-05T06:46:52.644Z,2.90
2022-08-05T06:49:21.369Z,2.90
2022-08-05T06:52:07.597Z,2.55
2022-08-05T06:54:54.048Z,2.72
2022-08-05T06:58:02.725Z,2.50
2022-08-05T07:00:07.859Z,2.88
2022-08-05T07:02:46.129Z,2.90
2022-08-05T07:05:18.596Z,2.53
2022-08-05T07:07:48.853Z,2.90
2022-08-05T07:10:16.387Z,2.50
2022-08-05T07:13:01.944Z,2.63
2022-08-05T07:16:00.992Z,2.47
2022-08-05T07:18:31.540Z,2.50
2022-08-05T07:20:58.484Z,2.13
2022-08-05T07:23:32.147Z,2.55
2022-08-05T07:25:59.134Z,2.33
2022-08-05T07:28:26.302Z,2.47
2022-08-05T07:30:54.996Z,2.20
2022-08-05T07:33:36.464Z,2.45
2022-08-05T07:36:21.498Z,2.70
2022-08-05T07:38:49.167Z,2.65
2022-08-05T07:42:13.277Z,2.80
2022-08-05T07:44:18.545Z,2.47
2022-08-05T07:46:48.639Z,3.10
2022-08-05T07:49:18.284Z,2.40
2022-08-05T07:51:53.355Z,2.58
2022-08-05T07:54:31.684Z,3.30
2022-08-05T07:57:17.611Z,3.17
2022-08-05T07:59:49.260Z,2.35
2022-08-05T08:02:17.662Z,2.70
2022-08-05T08:04:49.388Z,2.90
2022-08-05T08:09:44.738Z,3.17
2022-08-05T08:12:33.541Z,3.10
2022-08-05T08:15:02.191Z,3.00
2022-08-05T08:17:31.252Z,3.00
2022-08-05T08:20:21.496Z,2.63
2022-08-05T08:22:44.358Z,3.13
2022-08-05T08:25:15.688Z,3.30
2022-08-05T08:27:44.765Z,3.28
2022-08-05T08:30:27.006Z,2.60
2022-08-05T08:32:56.896Z,3.78
2022-08-05T08:35:26.762Z,2.50
2022-08-05T08:37:56.285Z,2.80
2022-08-05T08:40:23.760Z,2.60
2022-08-05T08:42:53.023Z,3.03
2022-08-05T08:45:26.752Z,2.88
2022-08-05T08:48:12.654Z,2.67
2022-08-05T08:51:22.004Z,2.47
2022-08-05T08:53:35.477Z,2.58
2022-08-05T08:56:05.957Z,2.60
2022-08-05T08:58:43.949Z,2.40
2022-08-05T09:01:17.238Z,2.80
2022-08-05T09:03:54.258Z,2.53
2022-08-05T09:06:24.325Z,2.30
2022-08-05T09:08:57.941Z,2.78
2022-08-05T09:11:51.549Z,2.80
2022-08-05T09:14:57.620Z,2.25
2022-08-05T09:17:03.767Z,2.60
2022-08-05T09:19:36.874Z,3.03
2022-08-05T09:22:22.396Z,2.67
2022-08-05T09:25:13.814Z,4.82
2022-08-05T09:28:05.961Z,2.08
2022-08-05T09:30:34.281Z,2.60
2022-08-05T09:33:04.918Z,2.65
2022-08-05T09:35:32.705Z,2.40
2022-08-05T09:38:16.853Z,2.00
2022-08-05T09:40:53.732Z,2.00
2022-08-05T09:43:30.835Z,2.55
2022-08-05T09:46:28.002Z,2.60
2022-08-05T09:49:08.054Z,2.67
2022-08-05T09:51:43.158Z,2.38
2022-08-05T09:54:10.097Z,2.08
2022-08-05T09:56:38.450Z,2.17
2022-08-05T09:59:08.350Z,1.83
2022-08-05T10:01:39.723Z,2.10
2022-08-05T10:04:15.934Z,2.40
2022-08-05T10:06:58.974Z,2.50
2022-08-05T10:09:28.199Z,3.25
2022-08-05T10:12:30.591Z,2.60
2022-08-05T10:15:16.961Z,3.35
2022-08-05T10:17:54.465Z,2.70
2022-08-05T10:20:23.924Z,2.70
2022-08-05T10:22:52.366Z,2.53
2022-08-05T10:25:19.525Z,2.58
2022-08-05T10:28:09.358Z,2.22
2022-08-05T10:31:20.921Z,2.05
2022-08-05T10:33:25.590Z,2.80
2022-08-05T10:35:59.702Z,2.58
2022-08-05T10:38:28.556Z,2.33
2022-08-05T10:41:23.239Z,2.60
2022-08-05T10:44:00.914Z,3.70
2022-08-05T10:46:43.640Z,2.70
2022-08-05T10:49:16.744Z,2.50
2022-08-05T10:52:00.270Z,2.40
2022-08-05T10:54:56.254Z,2.63
2022-08-05T10:57:31.799Z,2.85
2022-08-05T11:00:22.795Z,3.35
2022-08-05T11:03:25.144Z,2.92
2022-08-05T11:06:16.234Z,3.40
2022-08-05T11:09:24.499Z,2.60
2022-08-05T11:12:26.810Z,2.30
2022-08-05T11:15:21.260Z,2.25
2022-08-05T11:18:05.901Z,2.42
2022-08-05T11:20:46.098Z,2.28
2022-08-05T11:24:05.717Z,2.80
2022-08-05T11:26:33.871Z,1.87
2022-08-05T11:29:11.489Z,2.15
2022-08-05T11:31:58.375Z,2.35
2022-08-05T11:34:38.900Z,2.17
2022-08-05T11:37:06.093Z,2.25
2022-08-05T11:39:55.229Z,1.75
2022-08-05T11:42:27.977Z,2.03
2022-08-05T11:45:02.446Z,2.60
2022-08-05T11:47:49.511Z,2.22
2022-08-05T11:50:17.729Z,2.13
2022-08-05T11:52:46.181Z,1.85
2022-08-05T11:55:16.177Z,1.90
2022-08-05T11:58:10.520Z,2.10
2022-08-05T12:00:38.626Z,1.92
2022-08-05T12:03:42.229Z,2.50
2022-08-05T12:06:24.838Z,2.17
2022-08-05T12:08:54.840Z,2.88
2022-08-05T12:11:39.872Z,2.25
2022-08-05T12:14:10.383Z,2.30
2022-08-05T12:16:39.318Z,2.38
2022-08-05T12:19:08.215Z,2.40
2022-08-05T12:22:02.669Z,2.97
2022-08-05T12:24:30.044Z,2.42
2022-08-05T12:26:57.296Z,2.78
2022-08-05T12:29:26.428Z,2.60
2022-08-05T12:31:57.775Z,3.28
2022-08-05T12:34:30.366Z,4.43
2022-08-05T12:37:00.596Z,4.35
2022-08-05T12:39:37.528Z,4.28
2022-08-05T12:42:15.006Z,4.20
2022-08-05T12:44:43.148Z,4.00
2022-08-05T12:47:12.350Z,4.63
2022-08-05T12:50:03.537Z,4.00
2022-08-05T12:52:38.620Z,4.00
2022-08-05T12:55:26.573Z,2.75
2022-08-05T12:58:49.931Z,2.67
2022-08-05T13:02:01.007Z,3.40
2022-08-05T13:03:41.810Z,3.10
2022-08-05T13:06:17.146Z,2.60
2022-08-05T13:08:51.791Z,2.65
2022-08-05T13:11:25.451Z,2.70
2022-08-05T13:14:35.999Z,2.75
2022-08-05T13:17:08.908Z,2.50
2022-08-05T13:19:51.606Z,1.98
2022-08-05T13:22:29.201Z,4.28
2022-08-05T13:24:58.145Z,3.97
2022-08-05T13:27:38.253Z,2.63
2022-08-05T13:30:34.389Z,2.90
2022-08-05T13:32:54.017Z,2.88
2022-08-05T13:35:42.930Z,2.97
2022-08-05T13:38:10.779Z,2.58
2022-08-05T13:40:50.059Z,2.53
2022-08-05T13:43:21.925Z,2.53
2022-08-05T13:45:48.878Z,2.05
2022-08-05T13:48:58.070Z,2.38
2022-08-05T13:51:13.923Z,2.35
2022-08-05T13:53:47.703Z,1.98
2022-08-05T13:56:18.474Z,2.53
2022-08-05T13:58:53.216Z,2.10
2022-08-05T14:01:25.851Z,2.45
2022-08-05T14:04:21.246Z,2.70
2022-08-05T14:06:47.911Z,2.58
2022-08-05T14:09:25.357Z,2.50
2022-08-05T14:12:04.471Z,2.35
2022-08-05T14:14:42.818Z,2.38
2022-08-05T14:17:17.026Z,2.10
2022-08-05T14:19:54.391Z,2.15
2022-08-05T14:22:23.889Z,2.40
2022-08-05T14:24:57.039Z,2.58
2022-08-05T14:27:24.217Z,2.13
2022-08-05T14:29:55.441Z,2.65
2022-08-05T14:32:27.680Z,2.95
2022-08-05T14:34:54.787Z,5.63
2022-08-05T14:37:24.239Z,6.00
2022-08-05T14:40:14.281Z,3.17
2022-08-05T14:42:43.251Z,2.80
2022-08-05T14:45:10.227Z,2.60
2022-08-05T14:48:03.700Z,2.47
2022-08-05T14:50:25.294Z,2.42
2022-08-05T14:52:58.423Z,2.78
2022-08-05T14:55:28.767Z,2.35
2022-08-05T14:58:11.251Z,2.40
2022-08-05T15:00:58.813Z,2.53
2022-08-05T15:03:33.756Z,2.08
2022-08-05T15:06:08.126Z,2.60
2022-08-05T15:08:59.868Z,2.55
2022-08-05T15:11:52.656Z,2.80
2022-08-05T15:14:34.247Z,2.80
2022-08-05T15:17:03.974Z,2.70
2022-08-05T15:19:31.908Z,2.90
2022-08-05T15:22:00.947Z,2.72
2022-08-05T15:24:28.307Z,2.90
2022-08-05T15:26:55.994Z,2.70
2022-08-05T15:29:23.514Z,3.10
2022-08-05T15:31:56.471Z,2.58
2022-08-05T15:34:32.307Z,2.90
2022-08-05T15:37:03.461Z,3.10
2022-08-05T15:40:58.614Z,3.58
2022-08-05T15:42:54.422Z,2.97
2022-08-05T15:45:06.931Z,3.15
2022-08-05T15:47:36.305Z,3.05
2022-08-05T15:50:03.766Z,3.17
2022-08-05T15:52:52.934Z,3.03
2022-08-05T15:55:19.276Z,2.97
2022-08-05T15:57:51.329Z,3.03
2022-08-05T16:00:25.992Z,2.83
2022-08-05T16:05:28.161Z,2.35
2022-08-05T16:07:55.213Z,2.78
2022-08-05T16:10:26.739Z,3.00
2022-08-05T16:12:53.656Z,2.72
2022-08-05T16:15:23.135Z,2.92
2022-08-05T16:17:57.987Z,2.58
2022-08-05T16:20:25.420Z,2.40
2022-08-05T16:22:51.938Z,3.17
2022-08-05T16:25:18.501Z,2.55
2022-08-05T16:28:00.388Z,2.80
2022-08-05T16:30:32.449Z,2.97
2022-08-05T16:33:00.094Z,2.72
2022-08-05T16:35:28.637Z,2.72
2022-08-05T16:38:15.603Z,3.47
2022-08-05T16:40:51.602Z,3.40
2022-08-05T16:43:23.485Z,3.10
2022-08-05T16:46:07.434Z,2.72
2022-08-05T16:48:39.115Z,3.72
2022-08-05T16:51:08.969Z,3.22
2022-08-05T16:54:04.148Z,3.15
2022-08-05T16:56:29.221Z,2.83
2022-08-05T16:58:57.409Z,2.60
2022-08-05T17:01:24.546Z,2.60
2022-08-05T17:03:51.815Z,2.53
2022-08-05T17:06:18.512Z,2.60
2022-08-05T17:08:52.035Z,2.53
2022-08-05T17:11:23.725Z,2.30
2022-08-05T17:14:00.137Z,2.22
2022-08-05T17:16:33.573Z,2.90
2022-08-05T17:19:02.820Z,2.13
2022-08-05T17:21:36.034Z,1.67
2022-08-05T17:24:19.600Z,1.40
2022-08-05T17:26:52.373Z,1.35
2022-08-05T17:29:22.229Z,1.35
2022-08-05T17:31:58.192Z,1.50
2022-08-05T17:34:30.166Z,0.90
2022-08-05T17:36:59.808Z,1.17
2022-08-05T17:39:34.424Z,1.20
2022-08-05T17:42:20.104Z,1.17
2022-08-05T17:44:50.208Z,1.10
2022-08-05T17:47:22.538Z,0.95
2022-08-05T17:49:59.922Z,0.85
2022-08-05T17:54:58.062Z,0.80
2022-08-05T17:57:24.712Z,0.60
2022-08-05T18:00:03.726Z,0.93
2022-08-05T18:02:35.360Z,0.80
2022-08-05T18:05:06.459Z,0.82
2022-08-05T18:07:41.536Z,1.15
2022-08-05T18:10:10.754Z,1.00
2022-08-05T18:12:37.899Z,0.88
2022-08-05T18:15:05.442Z,0.82
2022-08-05T18:17:58.890Z,0.80
2022-08-05T18:20:29.436Z,0.70
2022-08-05T18:23:00.611Z,0.68
2022-08-05T18:25:39.588Z,0.65
2022-08-05T18:28:11.648Z,0.63
2022-08-05T18:30:40.186Z,0.90
2022-08-05T18:33:08.431Z,0.70
2022-08-05T18:36:01.032Z,0.73
2022-08-05T18:38:25.822Z,0.60
2022-08-05T18:41:56.592Z,0.65
2022-08-05T18:43:42.734Z,0.80
2022-08-05T18:46:14.868Z,0.88
2022-08-05T18:48:41.949Z,0.60
2022-08-05T18:52:04.445Z,0.57
2022-08-05T18:54:14.651Z,0.52
2022-08-05T18:56:41.737Z,0.70
2022-08-05T18:59:43.239Z,0.77
2022-08-05T19:02:04.836Z,0.88
2022-08-05T19:04:38.109Z,0.52
2022-08-05T19:07:24.864Z,0.90
2022-08-05T19:09:56.661Z,0.60
2022-08-05T19:12:23.867Z,0.68
2022-08-05T19:15:00.522Z,0.80
2022-08-05T19:17:59.575Z,0.88
2022-08-05T19:20:15.962Z,0.60
2022-08-05T19:22:44.098Z,0.73
2022-08-05T19:25:10.842Z,0.70
2022-08-05T19:27:48.716Z,0.80
2022-08-05T19:30:16.656Z,0.90
2022-08-05T19:32:47.385Z,0.95
2022-08-05T19:35:14.399Z,0.70
2022-08-05T19:38:04.400Z,1.20
2022-08-05T19:40:28.683Z,1.08
2022-08-05T19:43:04.731Z,1.25
2022-08-05T19:45:33.130Z,1.10
2022-08-05T19:48:03.384Z,1.00
2022-08-05T19:50:31.830Z,1.25
2022-08-05T19:52:58.573Z,1.10
2022-08-05T19:56:13.641Z,0.90
2022-08-05T19:58:28.327Z,1.10
2022-08-05T20:00:56.232Z,0.90
2022-08-05T20:03:22.812Z,1.00
2022-08-05T20:05:56.444Z,1.10
2022-08-05T20:08:24.229Z,1.08
2022-08-05T20:10:51.593Z,1.27
2022-08-05T20:13:30.380Z,1.20
2022-08-05T20:16:06.275Z,1.20
2022-08-05T20:18:36.302Z,1.20
2022-08-05T20:21:06.491Z,1.10
2022-08-05T20:23:39.506Z,1.05
2022-08-05T20:26:17.499Z,1.13
2022-08-05T20:28:45.694Z,1.00
2022-08-05T20:31:12.579Z,1.00
2022-08-05T20:33:42.560Z,1.17
2022-08-05T20:36:10.068Z,1.23
2022-08-05T20:38:37.753Z,1.00
2022-08-05T20:41:08.085Z,1.20
2022-08-05T20:44:00.400Z,1.02
2022-08-05T20:46:25.070Z,1.23
2022-08-05T20:48:52.336Z,1.00
2022-08-05T20:51:18.887Z,1.27
2022-08-05T20:53:56.872Z,1.58
2022-08-05T20:56:28.763Z,1.50
2022-08-05T20:58:56.700Z,1.20
2022-08-05T21:01:38.250Z,1.00
2022-08-05T21:04:07.179Z,1.17
2022-08-05T21:09:05.576Z,1.48
2022-08-05T21:12:09.558Z,1.10
2022-08-05T21:14:20.084Z,1.20
2022-08-05T21:16:47.827Z,1.00
2022-08-05T21:19:16.580Z,1.20
2022-08-05T21:21:50.764Z,1.30
2022-08-05T21:24:19.577Z,1.00
2022-08-05T21:26:57.928Z,1.08
2022-08-05T21:29:32.078Z,1.33
2022-08-05T21:31:59.429Z,0.90
2022-08-05T21:34:26.042Z,1.33
2022-08-05T21:36:54.750Z,1.60
2022-08-05T21:39:26.942Z,1.40
2022-08-05T21:42:01.060Z,1.63
2022-08-05T21:44:28.304Z,1.40
2022-08-05T21:46:55.740Z,1.30
2022-08-05T21:49:59.522Z,1.23
2022-08-05T21:52:22.374Z,1.33
2022-08-05T21:54:55.009Z,1.17
2022-08-05T21:57:31.423Z,1.40
2022-08-05T22:00:07.104Z,1.30
2022-08-05T22:02:38.107Z,1.35
2022-08-05T22:05:05.391Z,1.77
2022-08-05T22:07:40.186Z,1.38
2022-08-05T22:10:26.556Z,1.35
2022-08-05T22:12:53.396Z,1.23
2022-08-05T22:16:01.912Z,1.25
2022-08-05T22:18:07.019Z,1.70
2022-08-05T22:20:35.624Z,1.30
2022-08-05T22:23:24.120Z,1.52
2022-08-05T22:26:11.811Z,1.50
2022-08-05T22:28:41.484Z,1.30
2022-08-05T22:31:07.952Z,1.30
2022-08-05T22:33:57.945Z,1.60
2022-08-05T22:36:24.628Z,1.30
2022-08-05T22:38:54.642Z,1.60
2022-08-05T22:42:04.932Z,1.23
2022-08-05T22:44:08.796Z,1.20
2022-08-05T22:46:40.214Z,1.38
2022-08-05T22:49:12.413Z,1.35
2022-08-05T22:52:05.086Z,1.13
2022-08-05T22:54:35.562Z,1.67
2022-08-05T22:57:03.571Z,1.63
2022-08-05T22:59:43.918Z,1.08
2022-08-05T23:02:29.024Z,1.23
2022-08-05T23:04:58.232Z,0.88
2022-08-05T23:07:28.999Z,1.27
2022-08-05T23:10:01.981Z,0.88
2022-08-05T23:12:32.700Z,0.90
2022-08-05T23:15:03.318Z,0.68
2022-08-05T23:17:32.749Z,0.65
2022-08-05T23:20:16.581Z,0.98
2022-08-05T23:22:47.624Z,0.70
2022-08-05T23:25:52.394Z,1.13
2022-08-05T23:28:07.995Z,0.93
2022-08-05T23:30:40.473Z,0.90
2022-08-05T23:33:15.932Z,0.90
2022-08-05T23:35:43.186Z,0.80
2022-08-05T23:38:12.140Z,1.20
2022-08-05T23:40:38.803Z,0.73
2022-08-05T23:43:24.267Z,0.60
2022-08-05T23:45:52.451Z,0.82
2022-08-05T23:48:19.737Z,0.80
2022-08-05T23:50:46.398Z,0.70
2022-08-05T23:53:22.362Z,0.80
2022-08-05T23:55:49.710Z,1.40
2022-08-05T23:58:31.419Z,0.63
